Last 48 Hours

Stanford Met Tower

Hourly Data | America/Los_Angeles
as of 9/20/20 10:54 PM PDT
Date & Time Temp (°F) Temp Inversion (°F) RH (%) Dew Pt (°F) Wind Dir (°) Wind Spd (mph) Wind Gust (mph) Latest Rain (In) ETo Hr (in) ETo 2pm (In) Daily Rain (In) Daily Min Temp (°F) Daily Max Temp (°F)
9/20/20 - 2200 62.7 1.6 90 59.6 NE | 50 1.4 4.7 0.00 0.000 0.14 0.00 52.4 89.4
9/20/20 - 2100 66.5 -0.1 79 59.6 NE | 43 4.3 6.7 0.00 0.000 0.14 0.00 52.4 89.4
9/20/20 - 2000 71.4 0.2 68 60.2 NE | 43 3.2 5.4 0.00 0.000 0.14 0.00 52.4 89.4
9/20/20 - 1900 79.5 0.9 40 53.1 NNW | 339 3.9 9.2 0.00 0.000 0.14 0.00 52.4 89.4
9/20/20 - 1800 84.0 -1.3 46 60.9 N | 1 4.7 9.1 0.00 0.004 0.14 0.00 52.4 89.4
9/20/20 - 1700 85.1 -3.2 40 58.0 N | 2 6.6 11.2 0.00 0.010 0.14 0.00 52.4 89.4
9/20/20 - 1600 85.5 -5.1 41 58.9 NNW | 342 6.7 13.5 0.00 0.015 0.14 0.00 52.4 89.4
9/20/20 - 1500 86.8 -6.0 37 57.7 N | 352 5.8 11.8 0.00 0.019 0.14 0.00 52.4 89.4
9/20/20 - 1400 88.2 -6.2 32 54.3 NNW | 348 3.3 7.6 0.00 0.021 0.13 0.00 52.4 89.4
9/20/20 - 1300 88.0 -7.7 27 50.0 NE | 39 2.5 7.6 0.00 0.020 0.13 0.00 52.4 89.0
9/20/20 - 1200 84.0 -7.1 39 56.2 NNE | 23 1.7 6.4 0.00 0.018 0.13 0.00 52.4 84.5
9/20/20 - 1100 77.6 -6.0 54 59.8 NE | 49 2.9 5.4 0.00 0.014 0.13 0.00 52.4 78.4
9/20/20 - 1000 72.7 -4.5 67 61.1 SW | 223 2.0 4.9 0.00 0.009 0.13 0.00 52.4 72.7
9/20/20 - 0900 65.5 0.1 86 61.2 SW | 214 1.6 3.5 0.00 0.003 0.13 0.00 52.4 65.8
9/20/20 - 0800 57.2 0.2 91 54.6 SSW | 206 5.1 7.9 0.00 0.000 0.13 0.00 52.4 58.2
9/20/20 - 0700 52.5 1.6 92 50.1 SSW | 204 5.0 7.3 0.00 0.000 0.13 0.00 52.4 58.2
9/20/20 - 0600 53.2 0.9 90 50.3 SSW | 198 5.8 7.3 0.00 0.000 0.13 0.00 52.9 58.2
9/20/20 - 0500 53.9 1.1 88 50.5 SSW | 211 4.2 7.7 0.00 0.000 0.13 0.00 53.3 58.2
9/20/20 - 0400 54.7 0.8 86 50.6 SSW | 198 6.2 7.7 0.00 0.000 0.13 0.00 54.6 58.2
9/20/20 - 0300 55.8 0.9 85 51.5 SSW | 204 4.7 7.1 0.00 0.000 0.13 0.00 55.8 58.2
9/20/20 - 0200 56.6 1.2 85 52.3 SSW | 207 4.4 7.9 0.00 0.000 0.13 0.00 56.4 58.2
9/20/20 - 0100 56.6 2.1 88 53.0 SSW | 196 2.8 4.7 0.00 0.000 0.13 0.00 52.3 82.0
9/20/20 - 0000 61.2 0.8 80 55.0 S | 170 2.5 5.6 0.00 0.000 0.13 0.00 52.3 82.0
9/19/20 - 2300 62.3 1.9 82 56.8 SSE | 160 2.7 5.7 0.00 0.000 0.13 0.00 52.3 82.0
9/19/20 - 2200 63.3 2.3 78 56.5 SSE | 153 2.3 5.8 0.00 0.000 0.13 0.00 52.3 82.0
9/19/20 - 2100 64.3 1.4 76 56.7 ENE | 69 1.3 3.7 0.00 0.000 0.13 0.00 52.3 82.0
9/19/20 - 2000 69.6 3.4 63 56.7 NNW | 335 2.6 6.6 0.00 0.000 0.13 0.00 52.3 82.0
9/19/20 - 1900 75.8 0.0 53 57.4 NNW | 343 4.7 10.0 0.00 0.000 0.13 0.00 52.3 82.0
9/19/20 - 1800 79.1 -2.0 49 58.1 NNW | 331 5.5 10.8 0.00 0.005 0.13 0.00 52.3 82.0
9/19/20 - 1700 80.7 -4.2 44 56.9 N | 356 7.0 12.6 0.00 0.011 0.13 0.00 52.3 82.0
9/19/20 - 1600 80.7 -6.0 52 61.7 N | 349 5.3 11.9 0.00 0.016 0.13 0.00 52.3 81.4
9/19/20 - 1500 80.6 -9.2 50 60.6 NNW | 347 4.3 10.0 0.00 0.019 0.13 0.00 52.3 80.6
9/19/20 - 1400 77.1 -8.6 53 58.8 NNW | 330 4.3 9.3 0.00 0.020 0.12 0.00 52.3 77.6
9/19/20 - 1300 73.5 -6.6 58 57.9 NNW | 341 4.1 9.3 0.00 0.020 0.12 0.00 52.3 74.2
9/19/20 - 1200 72.8 -6.6 66 60.8 N | 2 3.4 8.6 0.00 0.017 0.12 0.00 52.3 72.8
9/19/20 - 1100 69.8 -7.8 71 59.8 NNE | 14 3.6 8.8 0.00 0.013 0.12 0.00 52.3 70.3
9/19/20 - 1000 66.5 -2.8 75 58.4 ENE | 69 1.9 5.3 0.00 0.008 0.12 0.00 52.3 67.0
9/19/20 - 0900 62.6 -1.1 89 59.4 ESE | 108 0.8 4.0 0.00 0.002 0.12 0.00 52.3 62.9
9/19/20 - 0800 56.1 0.8 97 55.3 SSW | 201 4.2 8.8 0.00 0.000 0.12 0.00 52.3 57.4
9/19/20 - 0700 52.8 1.3 98 52.3 SSW | 203 3.7 6.5 0.00 0.000 0.12 0.00 52.3 57.4
9/19/20 - 0600 53.0 1.7 98 52.6 S | 183 3.1 6.1 0.00 0.000 0.12 0.00 52.3 57.4
9/19/20 - 0500 53.5 0.7 97 52.8 SW | 220 3.2 7.6 0.00 0.000 0.12 0.00 52.8 57.4
9/19/20 - 0400 54.0 1.1 97 53.1 SSW | 211 4.1 7.6 0.00 0.000 0.12 0.00 54.0 57.4
9/19/20 - 0300 54.4 1.6 97 53.6 SW | 218 2.9 4.9 0.00 0.000 0.12 0.00 54.4 57.4
9/19/20 - 0200 55.6 1.6 97 54.7 SSW | 210 3.2 7.0 0.00 0.000 0.12 0.00 55.3 57.4
9/19/20 - 0100 56.7 1.2 95 55.3 SSW | 208 3.5 6.6 0.00 0.000 0.12 0.00 56.7 77.8
9/19/20 - 0000 58.0 1.1 96 57.0 SSE | 160 2.0 4.5 0.00 0.000 0.12 0.00 56.8 77.8
9/18/20 - 2300 60.0 1.2 92 57.8 SW | 215 3.6 7.9 0.00 0.000 0.12 0.00 56.8 77.8
9/18/20 - 2200 64.1 0.6 88 60.3 WNW | 284 3.7 9.3 0.00 0.000 0.12 0.00 56.8 77.8
Max 88.2 3.4 98 61.7 - 7.0 13.5 0.00 0.021 0.14 0.00 56.8 89.4
Avg 67.3 -1.4 72 56.3 - 3.7 7.5 0.00 0.005 0.13 - - -
Min 52.5 -9.2 27 50.0 - 0.8 3.5 0.00 0.000 0.12 0.00 52.3 57.4
Total - - - - - - - 0.00 0.264 - - - -